createdAt,value
2023-01-13T00:03:25.503Z,45.30
2023-01-13T00:07:23.378Z,44.90
2023-01-13T00:11:21.313Z,43.20
2023-01-13T00:15:21.242Z,42.20
2023-01-13T00:19:19.280Z,53.40
2023-01-13T00:23:17.255Z,51.80
2023-01-13T00:27:15.273Z,44.30
2023-01-13T00:31:23.285Z,42.60
2023-01-13T00:35:21.298Z,47.90
2023-01-13T00:39:19.188Z,42.80
2023-01-13T00:43:37.302Z,42.60
2023-01-13T00:47:35.510Z,37.80
2023-01-13T00:51:36.222Z,40.80
2023-01-13T00:55:34.240Z,45.60
2023-01-13T00:59:32.205Z,43.90
2023-01-13T01:03:30.343Z,42.60
2023-01-13T01:07:28.231Z,42.70
2023-01-13T01:11:30.235Z,43.00
2023-01-13T01:15:28.183Z,40.50
2023-01-13T01:19:26.144Z,42.50
2023-01-13T01:23:24.212Z,36.10
2023-01-13T01:27:22.149Z,45.40
2023-01-13T01:31:38.189Z,42.50
2023-01-13T01:35:36.160Z,41.20
2023-01-13T01:39:34.140Z,41.70
2023-01-13T01:43:53.232Z,47.60
2023-01-13T01:47:51.200Z,45.90
2023-01-13T01:52:01.122Z,38.40
2023-01-13T01:55:59.164Z,36.50
2023-01-13T01:59:57.108Z,38.90
2023-01-13T02:04:12.101Z,41.30
2023-01-13T02:08:12.085Z,38.90
2023-01-13T02:12:27.144Z,39.70
2023-01-13T02:16:32.163Z,40.50
2023-01-13T02:20:48.207Z,40.10
2023-01-13T02:25:04.110Z,35.90
2023-01-13T02:29:41.093Z,36.70
2023-01-13T02:33:56.062Z,40.20
2023-01-13T02:37:58.060Z,37.00
2023-01-13T02:42:23.092Z,42.90
2023-01-13T02:46:31.080Z,35.70
2023-01-13T02:50:33.052Z,38.10
2023-01-13T02:54:37.026Z,34.10
2023-01-13T02:58:40.076Z,38.00
2023-01-13T03:02:40.140Z,39.90
2023-01-13T03:06:52.050Z,36.00
2023-01-13T03:11:09.128Z,38.70
2023-01-13T03:15:33.118Z,34.40
2023-01-13T03:19:52.036Z,34.70
2023-01-13T03:23:59.083Z,39.10
2023-01-13T03:28:09.060Z,35.70
2023-01-13T03:32:14.080Z,38.50
2023-01-13T03:36:17.075Z,34.50
2023-01-13T03:40:21.106Z,38.20
2023-01-13T03:44:32.797Z,36.80
2023-01-13T03:48:34.973Z,38.20
2023-01-13T03:52:43.080Z,33.90
2023-01-13T03:56:56.963Z,33.80
2023-01-13T04:01:05.027Z,30.20
2023-01-13T04:05:12.954Z,29.40
2023-01-13T04:09:19.036Z,32.40
2023-01-13T04:13:22.953Z,29.50
2023-01-13T04:17:20.940Z,25.00
2023-01-13T04:21:19.941Z,29.50
2023-01-13T04:25:18.025Z,24.10
2023-01-13T04:29:15.961Z,26.90
2023-01-13T04:33:13.944Z,29.10
2023-01-13T04:37:11.940Z,26.30
2023-01-13T04:41:09.887Z,29.90
2023-01-13T04:45:07.921Z,25.00
2023-01-13T04:49:05.897Z,28.60
2023-01-13T04:53:08.989Z,23.30
2023-01-13T04:57:06.974Z,22.80
2023-01-13T05:01:05.878Z,24.90
2023-01-13T05:05:03.876Z,22.30
2023-01-13T05:09:01.931Z,22.00
2023-01-13T05:13:17.949Z,24.80
2023-01-13T05:17:15.908Z,21.70
2023-01-13T05:21:33.884Z,23.00
2023-01-13T05:25:32.832Z,28.20
2023-01-13T05:29:32.966Z,21.50
2023-01-13T05:33:34.996Z,23.30
2023-01-13T05:37:33.870Z,24.20
2023-01-13T05:41:48.837Z,24.40
2023-01-13T05:45:46.915Z,21.00
2023-01-13T05:49:44.904Z,21.60
2023-01-13T05:53:42.830Z,20.70
2023-01-13T05:57:40.853Z,20.00
2023-01-13T06:01:38.832Z,22.20
2023-01-13T06:05:36.812Z,18.30
2023-01-13T06:09:34.771Z,21.40
2023-01-13T06:13:34.815Z,22.70
2023-01-13T06:17:32.897Z,21.10
2023-01-13T06:21:33.041Z,19.50
2023-01-13T06:26:10.842Z,19.50
2023-01-13T06:30:08.761Z,22.30
2023-01-13T06:34:21.852Z,21.70
2023-01-13T06:38:23.750Z,23.80
2023-01-13T06:42:39.017Z,18.60
2023-01-13T06:46:16.326Z,22.70
2023-01-13T06:49:40.417Z,17.60
2023-01-13T06:53:06.821Z,20.00
2023-01-13T06:56:30.710Z,18.00
2023-01-13T06:59:55.456Z,18.90
2023-01-13T07:03:20.305Z,20.00
2023-01-13T07:06:44.195Z,15.00
2023-01-13T07:10:10.006Z,18.40
2023-01-13T07:13:54.294Z,21.20
2023-01-13T07:17:25.506Z,20.20
2023-01-13T07:20:57.059Z,19.60
2023-01-13T07:24:22.548Z,18.40
2023-01-13T07:31:28.811Z,16.70
2023-01-13T07:34:52.735Z,15.90
2023-01-13T07:38:17.261Z,20.10
2023-01-13T07:41:57.658Z,16.10
2023-01-13T07:45:21.679Z,18.70
2023-01-13T07:48:45.743Z,16.40
2023-01-13T07:52:09.979Z,20.10
2023-01-13T07:55:34.180Z,18.90
2023-01-13T07:59:00.709Z,20.90
2023-01-13T08:02:24.920Z,17.40
2023-01-13T08:05:49.645Z,18.10
2023-01-13T08:09:13.676Z,15.80
2023-01-13T08:12:56.926Z,17.30
2023-01-13T08:16:21.090Z,22.80
2023-01-13T08:19:45.086Z,17.90
2023-01-13T08:23:09.033Z,21.10
2023-01-13T08:26:32.903Z,20.10
2023-01-13T08:29:57.229Z,17.80
2023-01-13T08:33:21.452Z,18.30
2023-01-13T08:36:45.402Z,19.00
2023-01-13T08:40:10.040Z,16.10
2023-01-13T08:43:34.185Z,14.00
2023-01-13T08:46:58.983Z,16.20
2023-01-13T08:50:23.076Z,18.40
2023-01-13T08:53:47.116Z,19.20
2023-01-13T08:57:11.122Z,22.10
2023-01-13T09:00:35.333Z,23.80
2023-01-13T09:03:59.389Z,21.00
2023-01-13T09:07:23.384Z,16.60
2023-01-13T09:10:47.263Z,24.60
2023-01-13T09:14:11.159Z,21.50
2023-01-13T09:17:35.175Z,17.30
2023-01-13T09:21:00.189Z,17.10
2023-01-13T09:24:25.197Z,16.30
2023-01-13T09:27:49.070Z,18.40
2023-01-13T09:31:12.974Z,16.00
2023-01-13T09:34:54.605Z,17.50
2023-01-13T09:38:18.467Z,18.50
2023-01-13T09:42:02.863Z,18.00
2023-01-13T09:45:52.416Z,20.50
2023-01-13T09:49:23.094Z,17.90
2023-01-13T09:52:47.075Z,19.90
2023-01-13T09:56:12.308Z,17.20
2023-01-13T09:59:37.013Z,20.10
2023-01-13T10:03:30.702Z,17.40
2023-01-13T10:07:00.078Z,16.90
2023-01-13T10:10:38.161Z,17.60
2023-01-13T10:14:16.322Z,20.70
2023-01-13T10:17:44.129Z,18.20
2023-01-13T10:22:00.333Z,22.80
2023-01-13T10:25:52.130Z,22.30
2023-01-13T10:29:26.214Z,18.40
2023-01-13T10:32:57.413Z,22.00
2023-01-13T10:36:23.178Z,18.20
2023-01-13T10:43:12.253Z,19.90
2023-01-13T10:46:53.240Z,20.10
2023-01-13T10:50:17.178Z,16.30
2023-01-13T10:53:56.042Z,18.00
2023-01-13T10:57:22.808Z,16.90
2023-01-13T11:00:47.926Z,20.40
2023-01-13T11:04:27.922Z,18.10
2023-01-13T11:07:56.474Z,15.20
2023-01-13T11:11:41.075Z,19.50
2023-01-13T11:15:11.031Z,19.60
2023-01-13T11:18:34.889Z,18.00
2023-01-13T11:22:18.580Z,20.30
2023-01-13T11:25:46.061Z,16.40
2023-01-13T11:29:21.797Z,18.90
2023-01-13T11:33:18.623Z,20.30
2023-01-13T11:40:37.620Z,14.60
2023-01-13T11:44:19.964Z,20.30
2023-01-13T11:47:46.893Z,20.70
2023-01-13T11:51:44.556Z,18.40
2023-01-13T11:55:17.240Z,18.80
2023-01-13T11:58:59.316Z,17.20
2023-01-13T12:02:33.550Z,20.60
2023-01-13T12:06:36.000Z,20.80
2023-01-13T12:10:13.262Z,22.40
2023-01-13T12:13:52.377Z,20.30
2023-01-13T12:17:28.698Z,22.80
2023-01-13T12:25:25.410Z,21.80
2023-01-13T12:29:19.442Z,22.20
2023-01-13T12:32:47.728Z,21.00
2023-01-13T12:36:30.287Z,21.80
2023-01-13T12:40:05.365Z,25.40
2023-01-13T12:43:46.978Z,22.50
2023-01-13T12:47:35.501Z,24.20
2023-01-13T12:51:01.739Z,20.20
2023-01-13T12:54:54.922Z,19.30
2023-01-13T12:58:25.651Z,22.40
2023-01-13T13:02:11.352Z,21.30
2023-01-13T13:05:46.091Z,21.60
2023-01-13T13:09:29.568Z,19.60
2023-01-13T13:13:12.974Z,20.70
2023-01-13T13:16:51.797Z,21.20
2023-01-13T13:20:55.284Z,19.50
2023-01-13T13:24:19.446Z,22.40
2023-01-13T13:28:07.328Z,20.60
2023-01-13T13:31:46.293Z,22.50
2023-01-13T13:35:44.023Z,18.30
2023-01-13T13:39:45.295Z,20.40
2023-01-13T13:43:31.383Z,21.20
2023-01-13T13:47:00.369Z,19.00
2023-01-13T13:50:24.472Z,19.10
2023-01-13T13:53:48.958Z,27.50
2023-01-13T13:57:19.119Z,27.10
2023-01-13T14:00:49.158Z,25.00
2023-01-13T14:04:23.254Z,25.50
2023-01-13T14:07:50.156Z,23.30
2023-01-13T14:11:42.275Z,21.80
2023-01-13T14:15:06.673Z,23.30
2023-01-13T14:18:34.764Z,24.60
2023-01-13T14:22:01.964Z,23.70
2023-01-13T14:25:33.668Z,25.60
2023-01-13T14:29:02.913Z,25.40
2023-01-13T14:32:52.147Z,24.50
2023-01-13T14:36:54.055Z,32.30
2023-01-13T14:40:53.053Z,25.70
2023-01-13T14:44:51.050Z,27.00
2023-01-13T14:48:54.070Z,30.00
2023-01-13T14:53:07.057Z,29.00
2023-01-13T14:57:07.041Z,20.40
2023-01-13T15:01:06.058Z,25.90
2023-01-13T15:05:06.140Z,23.80
2023-01-13T15:09:04.015Z,24.90
2023-01-13T15:13:05.987Z,26.40
2023-01-13T15:17:03.978Z,31.70
2023-01-13T15:21:02.056Z,29.70
2023-01-13T15:25:05.070Z,25.70
2023-01-13T15:29:04.031Z,26.20
2023-01-13T15:33:02.083Z,28.70
2023-01-13T15:37:02.132Z,29.20
2023-01-13T15:41:01.991Z,28.80
2023-01-13T15:45:18.087Z,26.10
2023-01-13T15:49:19.969Z,29.30
2023-01-13T15:53:18.041Z,28.70
2023-01-13T15:57:16.007Z,28.10
2023-01-13T16:01:14.091Z,26.00
2023-01-13T16:05:11.909Z,29.50
2023-01-13T16:09:09.962Z,28.70
2023-01-13T16:13:11.321Z,26.00
2023-01-13T16:17:08.984Z,36.40
2023-01-13T16:21:07.907Z,32.00
2023-01-13T16:25:05.981Z,31.40
2023-01-13T16:29:04.998Z,30.40
2023-01-13T16:33:03.037Z,28.80
2023-01-13T16:37:00.945Z,24.90
2023-01-13T16:40:59.098Z,26.10
2023-01-13T16:44:56.932Z,26.40
2023-01-13T16:48:55.134Z,30.50
2023-01-13T16:52:53.041Z,27.10
2023-01-13T16:56:51.003Z,34.00
2023-01-13T17:00:49.025Z,30.50
2023-01-13T17:04:46.953Z,33.00
2023-01-13T17:08:45.031Z,30.90
2023-01-13T17:12:43.012Z,36.90
2023-01-13T17:16:40.925Z,34.50
2023-01-13T17:20:39.000Z,39.40
2023-01-13T17:24:37.893Z,40.80
2023-01-13T17:28:35.914Z,41.30
2023-01-13T17:32:35.909Z,40.10
2023-01-13T17:36:33.936Z,51.50
2023-01-13T17:40:31.916Z,41.00
2023-01-13T17:44:34.910Z,39.70
2023-01-13T17:48:32.912Z,38.00
2023-01-13T17:52:30.989Z,41.00
2023-01-13T17:56:30.925Z,40.00
2023-01-13T18:00:28.928Z,41.30
2023-01-13T18:04:31.849Z,43.10
2023-01-13T18:08:30.900Z,33.30
2023-01-13T18:12:28.866Z,37.10
2023-01-13T18:16:30.456Z,39.10
2023-01-13T18:20:45.916Z,33.40
2023-01-13T18:25:00.923Z,33.10
2023-01-13T18:28:58.803Z,33.40
2023-01-13T18:32:56.960Z,30.50
2023-01-13T18:36:55.853Z,32.10
2023-01-13T18:40:53.832Z,30.30
2023-01-13T18:44:51.815Z,31.90
2023-01-13T18:48:49.811Z,31.00
2023-01-13T18:52:47.879Z,30.80
2023-01-13T18:56:46.061Z,36.50
2023-01-13T19:00:43.837Z,30.00
2023-01-13T19:04:44.116Z,30.00
2023-01-13T19:08:41.776Z,30.10
2023-01-13T19:12:40.786Z,32.60
2023-01-13T19:16:38.749Z,32.40
2023-01-13T19:20:36.798Z,34.10
2023-01-13T19:24:34.775Z,30.00
2023-01-13T19:28:33.159Z,37.30
2023-01-13T19:32:30.956Z,42.60
2023-01-13T19:36:28.766Z,37.50
2023-01-13T19:40:26.719Z,30.60
2023-01-13T19:44:43.751Z,31.10
2023-01-13T19:48:41.716Z,39.90
2023-01-13T19:52:39.770Z,34.30
2023-01-13T19:56:37.718Z,33.30
2023-01-13T20:00:35.738Z,34.10
2023-01-13T20:04:40.672Z,29.90
2023-01-13T20:08:38.726Z,30.00
2023-01-13T20:12:36.676Z,27.10
2023-01-13T20:16:34.905Z,28.80
2023-01-13T20:20:32.676Z,27.40
2023-01-13T20:24:32.703Z,30.20
2023-01-13T20:28:30.656Z,30.30
2023-01-13T20:32:29.957Z,28.50
2023-01-13T20:36:45.726Z,27.90
2023-01-13T20:40:45.803Z,29.80
2023-01-13T20:44:43.638Z,31.50
2023-01-13T20:48:42.715Z,32.80
2023-01-13T20:52:40.711Z,30.20
2023-01-13T20:56:39.690Z,25.70
2023-01-13T21:00:37.681Z,28.70
2023-01-13T21:04:40.043Z,28.50
2023-01-13T21:08:37.625Z,31.40
2023-01-13T21:12:53.625Z,27.10
2023-01-13T21:16:51.604Z,28.30
2023-01-13T21:20:51.639Z,28.70
2023-01-13T21:24:50.636Z,28.80
2023-01-13T21:28:48.616Z,26.50
2023-01-13T21:32:46.580Z,29.90
2023-01-13T21:36:44.983Z,30.00
2023-01-13T21:40:42.586Z,25.20
2023-01-13T21:44:58.667Z,33.90
2023-01-13T21:48:58.589Z,29.20
2023-01-13T21:52:56.550Z,30.70
2023-01-13T21:56:54.635Z,30.30
2023-01-13T22:00:56.723Z,25.90
2023-01-13T22:04:55.584Z,29.50
2023-01-13T22:08:53.637Z,30.50
2023-01-13T22:12:51.527Z,30.40
2023-01-13T22:16:55.551Z,32.70
2023-01-13T22:20:53.522Z,27.10
2023-01-13T22:24:51.590Z,28.80
2023-01-13T22:28:51.847Z,26.80
2023-01-13T22:32:50.630Z,27.50
2023-01-13T22:36:49.509Z,32.80
2023-01-13T22:40:47.623Z,26.60
2023-01-13T22:44:45.575Z,30.30
2023-01-13T22:48:43.520Z,25.40
2023-01-13T22:52:45.594Z,25.40
2023-01-13T22:56:44.468Z,26.80
2023-01-13T23:00:43.504Z,28.50
2023-01-13T23:04:41.590Z,27.50
2023-01-13T23:08:39.448Z,25.00
2023-01-13T23:12:38.517Z,25.70
2023-01-13T23:16:37.525Z,25.30
2023-01-13T23:20:35.542Z,26.00
2023-01-13T23:24:35.472Z,27.00
2023-01-13T23:28:33.483Z,27.70
2023-01-13T23:32:32.470Z,33.40
2023-01-13T23:36:38.432Z,28.30
2023-01-13T23:40:36.382Z,26.80
2023-01-13T23:44:34.475Z,29.10
2023-01-13T23:48:32.401Z,26.60
2023-01-13T23:52:36.632Z,24.40
2023-01-13T23:56:39.653Z,22.30
